sensor_id;sensor_type;location;lat;lon;timestamp;pressure;altitude;pressure_sealevel;temperature;humidity
51468;BME280;37545;45.302;-122.946;2023-06-24T00:00:45;100739.16;;;30.01;30.58
51468;BME280;37545;45.302;-122.946;2023-06-24T00:03:15;100738.91;;;30.06;30.73
51468;BME280;37545;45.302;-122.946;2023-06-24T00:05:44;100735.28;;;30.07;30.70
51468;BME280;37545;45.302;-122.946;2023-06-24T00:08:16;100730.97;;;30.04;30.76
51468;BME280;37545;45.302;-122.946;2023-06-24T00:10:47;100732.53;;;30.09;30.89
51468;BME280;37545;45.302;-122.946;2023-06-24T00:13:16;100739.75;;;30.06;30.85
51468;BME280;37545;45.302;-122.946;2023-06-24T00:15:44;100737.97;;;29.90;31.71
51468;BME280;37545;45.302;-122.946;2023-06-24T00:18:14;100743.16;;;29.93;31.02
51468;BME280;37545;45.302;-122.946;2023-06-24T00:20:43;100741.09;;;29.98;31.63
51468;BME280;37545;45.302;-122.946;2023-06-24T00:23:12;100738.66;;;29.93;31.08
51468;BME280;37545;45.302;-122.946;2023-06-24T00:25:41;100730.91;;;29.89;31.22
51468;BME280;37545;45.302;-122.946;2023-06-24T00:28:10;100736.25;;;29.89;31.82
51468;BME280;37545;45.302;-122.946;2023-06-24T00:30:41;100738.75;;;29.92;32.18
51468;BME280;37545;45.302;-122.946;2023-06-24T00:33:10;100737.03;;;29.91;31.71
51468;BME280;37545;45.302;-122.946;2023-06-24T00:35:41;100739.22;;;30.00;31.89
51468;BME280;37545;45.302;-122.946;2023-06-24T00:38:10;100740.00;;;30.02;31.36
51468;BME280;37545;45.302;-122.946;2023-06-24T00:40:38;100748.19;;;29.99;31.50
51468;BME280;37545;45.302;-122.946;2023-06-24T00:43:14;100749.34;;;29.93;30.59
51468;BME280;37545;45.302;-122.946;2023-06-24T00:45:42;100744.47;;;29.84;31.30
51468;BME280;37545;45.302;-122.946;2023-06-24T00:48:14;100746.59;;;29.77;31.66
51468;BME280;37545;45.302;-122.946;2023-06-24T00:50:44;100739.91;;;29.69;31.46
51468;BME280;37545;45.302;-122.946;2023-06-24T00:53:12;100746.41;;;29.63;32.27
51468;BME280;37545;45.302;-122.946;2023-06-24T00:55:41;100752.34;;;29.51;32.23
51468;BME280;37545;45.302;-122.946;2023-06-24T00:58:11;100752.81;;;29.41;31.73
51468;BME280;37545;45.302;-122.946;2023-06-24T01:00:43;100755.78;;;29.35;32.73
51468;BME280;37545;45.302;-122.946;2023-06-24T01:03:13;100756.34;;;29.04;33.25
51468;BME280;37545;45.302;-122.946;2023-06-24T01:05:45;100763.31;;;28.69;33.69
51468;BME280;37545;45.302;-122.946;2023-06-24T01:08:13;100760.03;;;28.64;33.50
51468;BME280;37545;45.302;-122.946;2023-06-24T01:10:42;100755.66;;;28.61;33.95
51468;BME280;37545;45.302;-122.946;2023-06-24T01:13:10;100762.22;;;28.54;34.74
51468;BME280;37545;45.302;-122.946;2023-06-24T01:15:41;100755.44;;;28.47;34.92
51468;BME280;37545;45.302;-122.946;2023-06-24T01:18:20;100760.03;;;28.43;34.89
51468;BME280;37545;45.302;-122.946;2023-06-24T01:20:55;100759.06;;;28.44;35.10
51468;BME280;37545;45.302;-122.946;2023-06-24T01:24:05;100758.63;;;28.34;35.59
51468;BME280;37545;45.302;-122.946;2023-06-24T01:29:55;100766.22;;;28.03;35.83
51468;BME280;37545;45.302;-122.946;2023-06-24T01:32:32;100774.19;;;27.81;36.69
51468;BME280;37545;45.302;-122.946;2023-06-24T01:35:06;100775.44;;;27.51;36.55
51468;BME280;37545;45.302;-122.946;2023-06-24T01:37:40;100785.50;;;27.43;36.55
51468;BME280;37545;45.302;-122.946;2023-06-24T01:40:12;100794.81;;;27.31;37.02
51468;BME280;37545;45.302;-122.946;2023-06-24T01:42:45;100801.69;;;27.13;37.26
51468;BME280;37545;45.302;-122.946;2023-06-24T01:45:16;100798.75;;;26.98;37.53
51468;BME280;37545;45.302;-122.946;2023-06-24T01:47:48;100806.59;;;26.77;37.82
51468;BME280;37545;45.302;-122.946;2023-06-24T01:50:22;100797.06;;;26.46;38.49
51468;BME280;37545;45.302;-122.946;2023-06-24T01:52:53;100802.19;;;26.27;39.08
51468;BME280;37545;45.302;-122.946;2023-06-24T01:55:24;100800.25;;;26.06;39.35
51468;BME280;37545;45.302;-122.946;2023-06-24T01:57:55;100803.25;;;25.95;39.65
51468;BME280;37545;45.302;-122.946;2023-06-24T02:00:26;100799.06;;;25.88;39.85
51468;BME280;37545;45.302;-122.946;2023-06-24T02:02:56;100802.00;;;25.79;39.72
51468;BME280;37545;45.302;-122.946;2023-06-24T02:05:25;100807.56;;;25.71;40.36
51468;BME280;37545;45.302;-122.946;2023-06-24T02:07:54;100816.53;;;25.67;40.71
51468;BME280;37545;45.302;-122.946;2023-06-24T02:10:27;100817.53;;;25.63;41.21
51468;BME280;37545;45.302;-122.946;2023-06-24T02:12:56;100821.66;;;25.45;41.49
51468;BME280;37545;45.302;-122.946;2023-06-24T02:15:26;100829.25;;;25.27;42.71
51468;BME280;37545;45.302;-122.946;2023-06-24T02:17:59;100831.41;;;25.13;43.23
51468;BME280;37545;45.302;-122.946;2023-06-24T02:20:31;100838.69;;;25.05;42.38
51468;BME280;37545;45.302;-122.946;2023-06-24T02:23:00;100841.38;;;25.03;42.37
51468;BME280;37545;45.302;-122.946;2023-06-24T02:25:32;100838.81;;;25.02;42.27
51468;BME280;37545;45.302;-122.946;2023-06-24T02:28:01;100841.63;;;24.96;43.07
51468;BME280;37545;45.302;-122.946;2023-06-24T02:30:30;100844.44;;;24.90;42.60
51468;BME280;37545;45.302;-122.946;2023-06-24T02:33:07;100849.69;;;24.91;43.30
51468;BME280;37545;45.302;-122.946;2023-06-24T02:35:38;100855.81;;;24.93;44.32
51468;BME280;37545;45.302;-122.946;2023-06-24T02:38:08;100854.97;;;24.91;44.10
51468;BME280;37545;45.302;-122.946;2023-06-24T02:40:39;100855.84;;;24.92;43.39
51468;BME280;37545;45.302;-122.946;2023-06-24T02:43:08;100853.13;;;24.95;43.47
51468;BME280;37545;45.302;-122.946;2023-06-24T02:45:38;100866.31;;;24.96;42.87
51468;BME280;37545;45.302;-122.946;2023-06-24T02:48:10;100867.41;;;24.87;44.65
51468;BME280;37545;45.302;-122.946;2023-06-24T02:50:38;100861.63;;;24.75;44.00
51468;BME280;37545;45.302;-122.946;2023-06-24T02:53:10;100860.91;;;24.68;43.22
51468;BME280;37545;45.302;-122.946;2023-06-24T02:55:40;100875.28;;;24.58;43.66
51468;BME280;37545;45.302;-122.946;2023-06-24T02:58:09;100868.44;;;24.51;43.95
51468;BME280;37545;45.302;-122.946;2023-06-24T03:00:38;100874.72;;;24.45;43.14
51468;BME280;37545;45.302;-122.946;2023-06-24T03:03:08;100879.22;;;24.41;43.72
51468;BME280;37545;45.302;-122.946;2023-06-24T03:05:37;100884.69;;;24.35;43.64
51468;BME280;37545;45.302;-122.946;2023-06-24T03:08:07;100881.22;;;24.33;44.10
51468;BME280;37545;45.302;-122.946;2023-06-24T03:10:36;100882.31;;;24.24;45.46
51468;BME280;37545;45.302;-122.946;2023-06-24T03:13:05;100892.78;;;24.28;46.57
51468;BME280;37545;45.302;-122.946;2023-06-24T03:15:34;100896.53;;;24.19;44.82
51468;BME280;37545;45.302;-122.946;2023-06-24T03:18:02;100895.78;;;24.14;44.88
51468;BME280;37545;45.302;-122.946;2023-06-24T03:20:32;100906.41;;;24.12;44.88
51468;BME280;37545;45.302;-122.946;2023-06-24T03:23:05;100906.53;;;24.08;44.62
51468;BME280;37545;45.302;-122.946;2023-06-24T03:25:34;100910.19;;;24.00;44.35
51468;BME280;37545;45.302;-122.946;2023-06-24T03:28:03;100915.63;;;23.94;44.29
51468;BME280;37545;45.302;-122.946;2023-06-24T03:30:33;100912.25;;;23.89;46.39
51468;BME280;37545;45.302;-122.946;2023-06-24T03:33:04;100931.81;;;23.80;45.69
51468;BME280;37545;45.302;-122.946;2023-06-24T03:35:35;100934.56;;;23.76;45.62
51468;BME280;37545;45.302;-122.946;2023-06-24T03:38:03;100933.72;;;23.71;45.56
51468;BME280;37545;45.302;-122.946;2023-06-24T03:40:40;100939.22;;;23.61;45.69
51468;BME280;37545;45.302;-122.946;2023-06-24T03:43:10;100942.84;;;23.57;48.05
51468;BME280;37545;45.302;-122.946;2023-06-24T03:45:38;100951.81;;;23.50;48.39
51468;BME280;37545;45.302;-122.946;2023-06-24T03:48:07;100959.84;;;23.46;48.16
51468;BME280;37545;45.302;-122.946;2023-06-24T03:50:37;100952.06;;;23.38;42.73
51468;BME280;37545;45.302;-122.946;2023-06-24T03:53:06;100958.34;;;23.32;47.92
51468;BME280;37545;45.302;-122.946;2023-06-24T03:55:35;100962.88;;;23.26;47.61
51468;BME280;37545;45.302;-122.946;2023-06-24T03:58:03;100977.94;;;23.19;46.80
51468;BME280;37545;45.302;-122.946;2023-06-24T04:00:31;100973.69;;;23.12;44.71
51468;BME280;37545;45.302;-122.946;2023-06-24T04:03:00;100980.03;;;23.02;42.72
51468;BME280;37545;45.302;-122.946;2023-06-24T04:05:44;100981.84;;;22.98;43.16
51468;BME280;37545;45.302;-122.946;2023-06-24T04:08:12;100982.78;;;22.94;41.72
51468;BME280;37545;45.302;-122.946;2023-06-24T04:10:40;100988.16;;;22.88;41.60
51468;BME280;37545;45.302;-122.946;2023-06-24T04:13:09;100990.03;;;22.81;42.26
51468;BME280;37545;45.302;-122.946;2023-06-24T04:15:38;100990.16;;;22.75;42.39
51468;BME280;37545;45.302;-122.946;2023-06-24T04:18:06;101001.66;;;22.69;41.11
51468;BME280;37545;45.302;-122.946;2023-06-24T04:20:35;101009.63;;;22.68;40.46
51468;BME280;37545;45.302;-122.946;2023-06-24T04:23:05;101002.72;;;22.59;41.34
51468;BME280;37545;45.302;-122.946;2023-06-24T04:25:35;101018.56;;;22.59;41.05
51468;BME280;37545;45.302;-122.946;2023-06-24T04:28:04;101021.28;;;22.54;40.79
51468;BME280;37545;45.302;-122.946;2023-06-24T04:30:33;101023.97;;;22.50;40.22
51468;BME280;37545;45.302;-122.946;2023-06-24T04:33:02;101028.47;;;22.43;40.70
51468;BME280;37545;45.302;-122.946;2023-06-24T04:35:31;101034.66;;;22.41;41.98
51468;BME280;37545;45.302;-122.946;2023-06-24T04:37:59;101028.59;;;22.34;41.75
51468;BME280;37545;45.302;-122.946;2023-06-24T04:40:29;101034.81;;;22.28;41.61
51468;BME280;37545;45.302;-122.946;2023-06-24T04:42:58;101040.22;;;22.22;41.23
51468;BME280;37545;45.302;-122.946;2023-06-24T04:45:26;101044.59;;;22.17;41.93
51468;BME280;37545;45.302;-122.946;2023-06-24T04:47:55;101043.88;;;22.09;41.76
51468;BME280;37545;45.302;-122.946;2023-06-24T04:50:26;101055.44;;;21.97;43.17
51468;BME280;37545;45.302;-122.946;2023-06-24T04:52:54;101059.94;;;21.87;45.22
51468;BME280;37545;45.302;-122.946;2023-06-24T04:55:23;101059.22;;;21.74;45.67
51468;BME280;37545;45.302;-122.946;2023-06-24T04:57:53;101064.72;;;21.53;47.17
51468;BME280;37545;45.302;-122.946;2023-06-24T05:00:22;101064.88;;;21.36;47.91
51468;BME280;37545;45.302;-122.946;2023-06-24T05:02:51;101071.13;;;21.23;48.64
51468;BME280;37545;45.302;-122.946;2023-06-24T05:05:19;101072.09;;;21.16;48.33
51468;BME280;37545;45.302;-122.946;2023-06-24T05:07:48;101072.13;;;21.11;48.93
51468;BME280;37545;45.302;-122.946;2023-06-24T05:10:16;101073.06;;;21.02;49.47
51468;BME280;37545;45.302;-122.946;2023-06-24T05:12:45;101083.72;;;20.90;49.69
51468;BME280;37545;45.302;-122.946;2023-06-24T05:15:15;101084.69;;;20.77;50.63
51468;BME280;37545;45.302;-122.946;2023-06-24T05:17:43;101085.66;;;20.54;51.36
51468;BME280;37545;45.302;-122.946;2023-06-24T05:20:12;101087.53;;;20.38;51.90
51468;BME280;37545;45.302;-122.946;2023-06-24T05:22:40;101094.59;;;20.28;52.27
51468;BME280;37545;45.302;-122.946;2023-06-24T05:25:09;101093.75;;;20.17;52.34
51468;BME280;37545;45.302;-122.946;2023-06-24T05:27:40;101089.44;;;20.07;53.25
51468;BME280;37545;45.302;-122.946;2023-06-24T05:30:11;101093.00;;;19.87;54.09
51468;BME280;37545;45.302;-122.946;2023-06-24T05:32:42;101100.06;;;19.75;54.18
51468;BME280;37545;45.302;-122.946;2023-06-24T05:35:10;101103.53;;;19.63;54.89
51468;BME280;37545;45.302;-122.946;2023-06-24T05:37:39;101094.84;;;19.45;55.53
51468;BME280;37545;45.302;-122.946;2023-06-24T05:40:08;101107.09;;;19.34;56.58
51468;BME280;37545;45.302;-122.946;2023-06-24T05:42:36;101107.97;;;19.19;56.42
51468;BME280;37545;45.302;-122.946;2023-06-24T05:45:06;101119.38;;;19.20;56.70
51468;BME280;37545;45.302;-122.946;2023-06-24T05:47:34;101128.97;;;19.15;57.13
51468;BME280;37545;45.302;-122.946;2023-06-24T05:50:05;101131.59;;;19.09;57.44
51468;BME280;37545;45.302;-122.946;2023-06-24T05:52:34;101133.34;;;19.05;58.22
51468;BME280;37545;45.302;-122.946;2023-06-24T05:55:02;101132.44;;;18.98;58.01
51468;BME280;37545;45.302;-122.946;2023-06-24T05:57:31;101133.31;;;18.88;58.54
51468;BME280;37545;45.302;-122.946;2023-06-24T05:59:59;101137.69;;;18.78;58.57
51468;BME280;37545;45.302;-122.946;2023-06-24T06:02:29;101136.75;;;18.69;59.25
51468;BME280;37545;45.302;-122.946;2023-06-24T06:04:59;101143.72;;;18.59;59.55
51468;BME280;37545;45.302;-122.946;2023-06-24T06:07:29;101144.56;;;18.49;59.75
51468;BME280;37545;45.302;-122.946;2023-06-24T06:09:57;101140.16;;;18.40;60.60
51468;BME280;37545;45.302;-122.946;2023-06-24T06:12:27;101142.75;;;18.31;62.07
51468;BME280;37545;45.302;-122.946;2023-06-24T06:14:55;101141.84;;;18.16;62.79
51468;BME280;37545;45.302;-122.946;2023-06-24T06:17:24;101145.25;;;18.06;62.40
51468;BME280;37545;45.302;-122.946;2023-06-24T06:19:52;101146.09;;;17.99;62.32
51468;BME280;37545;45.302;-122.946;2023-06-24T06:22:20;101161.75;;;17.88;62.76
51468;BME280;37545;45.302;-122.946;2023-06-24T06:24:51;101161.66;;;17.76;62.81
51468;BME280;37545;45.302;-122.946;2023-06-24T06:27:19;101155.44;;;17.63;63.26
51468;BME280;37545;45.302;-122.946;2023-06-24T06:29:47;101154.50;;;17.53;63.82
51468;BME280;37545;45.302;-122.946;2023-06-24T06:32:16;101165.78;;;17.45;63.56
51468;BME280;37545;45.302;-122.946;2023-06-24T06:34:44;101164.81;;;17.33;64.07
51468;BME280;37545;45.302;-122.946;2023-06-24T06:37:13;101169.06;;;17.21;65.44
51468;BME280;37545;45.302;-122.946;2023-06-24T06:39:41;101177.63;;;17.06;65.61
51468;BME280;37545;45.302;-122.946;2023-06-24T06:42:11;101178.38;;;16.92;65.63
51468;BME280;37545;45.302;-122.946;2023-06-24T06:44:41;101184.47;;;16.88;65.66
51468;BME280;37545;45.302;-122.946;2023-06-24T06:47:10;101187.84;;;16.81;66.27
51468;BME280;37545;45.302;-122.946;2023-06-24T06:49:39;101189.53;;;16.78;65.79
51468;BME280;37545;45.302;-122.946;2023-06-24T06:52:07;101190.34;;;16.73;66.65
51468;BME280;37545;45.302;-122.946;2023-06-24T06:54:36;101196.38;;;16.68;66.32
51468;BME280;37545;45.302;-122.946;2023-06-24T06:57:05;101189.28;;;16.58;67.11
51468;BME280;37545;45.302;-122.946;2023-06-24T06:59:35;101200.56;;;16.52;67.05
51468;BME280;37545;45.302;-122.946;2023-06-24T07:02:04;101203.06;;;16.44;66.79
51468;BME280;37545;45.302;-122.946;2023-06-24T07:04:33;101195.19;;;16.41;67.19
51468;BME280;37545;45.302;-122.946;2023-06-24T07:07:01;101198.50;;;16.28;67.18
51468;BME280;37545;45.302;-122.946;2023-06-24T07:09:30;101206.19;;;16.16;68.87
51468;BME280;37545;45.302;-122.946;2023-06-24T07:11:58;101206.03;;;16.06;68.76
51468;BME280;37545;45.302;-122.946;2023-06-24T07:14:27;101212.88;;;15.98;68.72
51468;BME280;37545;45.302;-122.946;2023-06-24T07:16:58;101216.25;;;15.91;68.55
51468;BME280;37545;45.302;-122.946;2023-06-24T07:19:26;101217.06;;;15.87;68.30
51468;BME280;37545;45.302;-122.946;2023-06-24T07:21:55;101217.97;;;15.89;67.59
51468;BME280;37545;45.302;-122.946;2023-06-24T07:24:23;101224.00;;;15.86;67.61
51468;BME280;37545;45.302;-122.946;2023-06-24T07:26:52;101233.53;;;15.84;68.06
51468;BME280;37545;45.302;-122.946;2023-06-24T07:29:20;101234.31;;;15.77;67.68
51468;BME280;37545;45.302;-122.946;2023-06-24T07:31:49;101228.97;;;15.71;68.54
51468;BME280;37545;45.302;-122.946;2023-06-24T07:34:19;101241.84;;;15.60;69.01
51468;BME280;37545;45.302;-122.946;2023-06-24T07:36:47;101235.56;;;15.49;70.23
51468;BME280;37545;45.302;-122.946;2023-06-24T07:39:17;101242.28;;;15.36;70.32
51468;BME280;37545;45.302;-122.946;2023-06-24T07:41:45;101242.16;;;15.30;70.44
51468;BME280;37545;45.302;-122.946;2023-06-24T07:44:14;101251.63;;;15.23;71.11
51468;BME280;37545;45.302;-122.946;2023-06-24T07:46:43;101255.03;;;15.19;72.25
51468;BME280;37545;45.302;-122.946;2023-06-24T07:49:11;101256.69;;;15.16;72.07
51468;BME280;37545;45.302;-122.946;2023-06-24T07:51:41;101247.81;;;15.06;73.22
51468;BME280;37545;45.302;-122.946;2023-06-24T07:54:11;101259.97;;;15.05;74.42
51468;BME280;37545;45.302;-122.946;2023-06-24T07:56:39;101259.88;;;15.01;74.01
51468;BME280;37545;45.302;-122.946;2023-06-24T07:59:08;101259.03;;;15.02;74.22
51468;BME280;37545;45.302;-122.946;2023-06-24T08:01:36;101262.41;;;14.98;74.20
51468;BME280;37545;45.302;-122.946;2023-06-24T08:04:05;101254.56;;;14.95;74.33
51468;BME280;37545;45.302;-122.946;2023-06-24T08:06:33;101258.81;;;14.90;74.30
51468;BME280;37545;45.302;-122.946;2023-06-24T08:09:03;101270.88;;;14.86;74.76
51468;BME280;37545;45.302;-122.946;2023-06-24T08:11:32;101274.16;;;14.76;74.79
51468;BME280;37545;45.302;-122.946;2023-06-24T08:14:01;101282.75;;;14.72;75.02
51468;BME280;37545;45.302;-122.946;2023-06-24T08:16:30;101281.78;;;14.68;75.10
51468;BME280;37545;45.302;-122.946;2023-06-24T08:18:58;101284.28;;;14.63;74.63
51468;BME280;37545;45.302;-122.946;2023-06-24T08:21:27;101284.28;;;14.63;74.99
51468;BME280;37545;45.302;-122.946;2023-06-24T08:23:56;101284.38;;;14.66;74.54
51468;BME280;37545;45.302;-122.946;2023-06-24T08:26:26;101286.22;;;14.71;73.92
51468;BME280;37545;45.302;-122.946;2023-06-24T08:28:54;101278.44;;;14.74;74.12
51468;BME280;37545;45.302;-122.946;2023-06-24T08:31:22;101285.41;;;14.73;73.84
51468;BME280;37545;45.302;-122.946;2023-06-24T08:33:52;101289.75;;;14.74;74.07
51468;BME280;37545;45.302;-122.946;2023-06-24T08:36:22;101278.41;;;14.72;73.28
51468;BME280;37545;45.302;-122.946;2023-06-24T08:38:51;101282.75;;;14.72;73.73
51468;BME280;37545;45.302;-122.946;2023-06-24T08:41:20;101278.41;;;14.72;73.44
51468;BME280;37545;45.302;-122.946;2023-06-24T08:43:50;101273.19;;;14.71;73.31
51468;BME280;37545;45.302;-122.946;2023-06-24T08:46:19;101275.69;;;14.66;73.44
51468;BME280;37545;45.302;-122.946;2023-06-24T08:48:49;101270.38;;;14.61;73.55
51468;BME280;37545;45.302;-122.946;2023-06-24T08:51:26;101275.50;;;14.58;73.88
51468;BME280;37545;45.302;-122.946;2023-06-24T08:53:56;101277.19;;;14.56;73.35
51468;BME280;37545;45.302;-122.946;2023-06-24T08:56:26;101271.03;;;14.53;74.33
51468;BME280;37545;45.302;-122.946;2023-06-24T08:58:57;101278.81;;;14.51;73.99
51468;BME280;37545;45.302;-122.946;2023-06-24T09:01:26;101290.03;;;14.49;74.18
51468;BME280;37545;45.302;-122.946;2023-06-24T09:03:55;101291.56;;;14.39;74.78
51468;BME280;37545;45.302;-122.946;2023-06-24T09:06:24;101279.16;;;14.27;75.07
51468;BME280;37545;45.302;-122.946;2023-06-24T09:08:53;101275.53;;;14.22;75.40
51468;BME280;37545;45.302;-122.946;2023-06-24T09:11:26;101280.75;;;14.22;76.73
51468;BME280;37545;45.302;-122.946;2023-06-24T09:13:58;101289.25;;;14.13;76.66
51468;BME280;37545;45.302;-122.946;2023-06-24T09:16:27;101289.19;;;14.12;76.13
51468;BME280;37545;45.302;-122.946;2023-06-24T09:18:57;101288.34;;;14.13;75.96
51468;BME280;37545;45.302;-122.946;2023-06-24T09:21:27;101298.75;;;14.13;75.95
51468;BME280;37545;45.302;-122.946;2023-06-24T09:23:58;101291.81;;;14.12;75.93
51468;BME280;37545;45.302;-122.946;2023-06-24T09:26:27;101298.63;;;14.07;77.13
51468;BME280;37545;45.302;-122.946;2023-06-24T09:28:59;101293.31;;;14.02;77.69
51468;BME280;37545;45.302;-122.946;2023-06-24T09:31:27;101305.50;;;14.04;77.51
51468;BME280;37545;45.302;-122.946;2023-06-24T09:33:57;101295.88;;;14.00;77.52
51468;BME280;37545;45.302;-122.946;2023-06-24T09:36:26;101300.16;;;13.98;77.58
51468;BME280;37545;45.302;-122.946;2023-06-24T09:38:54;101302.69;;;13.97;77.79
51468;BME280;37545;45.302;-122.946;2023-06-24T09:41:24;101301.88;;;13.98;77.01
51468;BME280;37545;45.302;-122.946;2023-06-24T09:43:59;101303.50;;;13.94;76.76
51468;BME280;37545;45.302;-122.946;2023-06-24T09:46:28;101310.38;;;13.91;76.98
51468;BME280;37545;45.302;-122.946;2023-06-24T09:48:59;101308.66;;;13.91;76.29
51468;BME280;37545;45.302;-122.946;2023-06-24T09:51:27;101298.19;;;13.90;76.86
51468;BME280;37545;45.302;-122.946;2023-06-24T09:53:56;101301.66;;;13.89;76.43
51468;BME280;37545;45.302;-122.946;2023-06-24T09:56:27;101299.06;;;13.89;76.43
51468;BME280;37545;45.302;-122.946;2023-06-24T09:58:55;101301.56;;;13.86;76.72
51468;BME280;37545;45.302;-122.946;2023-06-24T10:01:25;101293.63;;;13.81;76.64
51468;BME280;37545;45.302;-122.946;2023-06-24T10:03:54;101302.19;;;13.75;76.73
51468;BME280;37545;45.302;-122.946;2023-06-24T10:06:24;101302.91;;;13.70;77.29
51468;BME280;37545;45.302;-122.946;2023-06-24T10:08:54;101307.03;;;13.61;77.98
51468;BME280;37545;45.302;-122.946;2023-06-24T10:11:22;101310.28;;;13.53;79.36
51468;BME280;37545;45.302;-122.946;2023-06-24T10:13:51;101309.16;;;13.43;79.67
51468;BME280;37545;45.302;-122.946;2023-06-24T10:16:20;101310.84;;;13.41;79.59
51468;BME280;37545;45.302;-122.946;2023-06-24T10:18:50;101320.47;;;13.45;79.73
51468;BME280;37545;45.302;-122.946;2023-06-24T10:21:19;101315.28;;;13.45;79.04
51468;BME280;37545;45.302;-122.946;2023-06-24T10:23:52;101321.28;;;13.43;79.43
51468;BME280;37545;45.302;-122.946;2023-06-24T10:26:26;101316.03;;;13.41;79.40
51468;BME280;37545;45.302;-122.946;2023-06-24T10:29:13;101318.56;;;13.38;79.78
51468;BME280;37545;45.302;-122.946;2023-06-24T10:31:53;101323.66;;;13.35;80.10
51468;BME280;37545;45.302;-122.946;2023-06-24T10:34:31;101326.25;;;13.35;80.33
51468;BME280;37545;45.302;-122.946;2023-06-24T10:37:02;101327.09;;;13.34;80.00
51468;BME280;37545;45.302;-122.946;2023-06-24T10:39:49;101328.72;;;13.30;80.44
51468;BME280;37545;45.302;-122.946;2023-06-24T10:42:38;101335.66;;;13.30;80.68
51468;BME280;37545;45.302;-122.946;2023-06-24T10:45:19;101328.63;;;13.27;80.07
51468;BME280;37545;45.302;-122.946;2023-06-24T10:47:49;101330.22;;;13.22;80.57
51468;BME280;37545;45.302;-122.946;2023-06-24T10:50:21;101334.50;;;13.20;80.98
51468;BME280;37545;45.302;-122.946;2023-06-24T10:52:50;101338.69;;;13.16;81.11
51468;BME280;37545;45.302;-122.946;2023-06-24T10:55:23;101338.63;;;13.13;81.25
51468;BME280;37545;45.302;-122.946;2023-06-24T10:57:52;101327.31;;;13.11;81.19
51468;BME280;37545;45.302;-122.946;2023-06-24T11:00:21;101334.09;;;13.06;81.08
51468;BME280;37545;45.302;-122.946;2023-06-24T11:02:49;101335.81;;;13.06;81.27
51468;BME280;37545;45.302;-122.946;2023-06-24T11:05:19;101329.72;;;13.05;80.87
51468;BME280;37545;45.302;-122.946;2023-06-24T11:07:48;101327.00;;;13.00;80.83
51468;BME280;37545;45.302;-122.946;2023-06-24T11:10:17;101332.06;;;12.96;80.63
51468;BME280;37545;45.302;-122.946;2023-06-24T11:12:45;101332.84;;;12.93;80.78
51468;BME280;37545;45.302;-122.946;2023-06-24T11:15:14;101328.44;;;12.91;80.09
51468;BME280;37545;45.302;-122.946;2023-06-24T11:17:43;101333.56;;;12.88;79.40
51468;BME280;37545;45.302;-122.946;2023-06-24T11:20:11;101328.25;;;12.83;80.01
51468;BME280;37545;45.302;-122.946;2023-06-24T11:22:42;101336.91;;;12.84;79.90
51468;BME280;37545;45.302;-122.946;2023-06-24T11:25:19;101346.38;;;12.82;79.57
51468;BME280;37545;45.302;-122.946;2023-06-24T11:27:50;101343.69;;;12.78;79.21
51468;BME280;37545;45.302;-122.946;2023-06-24T11:30:20;101343.69;;;12.78;79.82
51468;BME280;37545;45.302;-122.946;2023-06-24T11:32:48;101350.56;;;12.78;79.17
51468;BME280;37545;45.302;-122.946;2023-06-24T11:35:17;101342.63;;;12.73;78.11
51468;BME280;37545;45.302;-122.946;2023-06-24T11:37:48;101352.06;;;12.70;77.95
51468;BME280;37545;45.302;-122.946;2023-06-24T11:40:18;101339.91;;;12.69;78.22
51468;BME280;37545;45.302;-122.946;2023-06-24T11:42:48;101345.09;;;12.69;78.28
51468;BME280;37545;45.302;-122.946;2023-06-24T11:45:20;101347.66;;;12.67;78.03
51468;BME280;37545;45.302;-122.946;2023-06-24T11:47:49;101357.25;;;12.70;78.90
51468;BME280;37545;45.302;-122.946;2023-06-24T11:50:18;101359.81;;;12.68;79.40
51468;BME280;37545;45.302;-122.946;2023-06-24T11:52:48;101360.59;;;12.66;80.47
51468;BME280;37545;45.302;-122.946;2023-06-24T11:55:19;101356.28;;;12.66;80.53
51468;BME280;37545;45.302;-122.946;2023-06-24T11:57:53;101361.47;;;12.66;81.57
51468;BME280;37545;45.302;-122.946;2023-06-24T12:00:22;101367.56;;;12.67;80.97
51468;BME280;37545;45.302;-122.946;2023-06-24T12:02:52;101367.50;;;12.65;81.72
51468;BME280;37545;45.302;-122.946;2023-06-24T12:05:24;101367.50;;;12.65;82.06
51468;BME280;37545;45.302;-122.946;2023-06-24T12:08:01;101361.38;;;12.63;82.06
51468;BME280;37545;45.302;-122.946;2023-06-24T12:10:30;101363.13;;;12.64;81.77
51468;BME280;37545;45.302;-122.946;2023-06-24T12:13:00;101379.63;;;12.65;81.93
51468;BME280;37545;45.302;-122.946;2023-06-24T12:15:29;101370.91;;;12.63;81.97
51468;BME280;37545;45.302;-122.946;2023-06-24T12:17:58;101368.25;;;12.61;81.97
51468;BME280;37545;45.302;-122.946;2023-06-24T12:20:26;101355.78;;;12.49;81.97
51468;BME280;37545;45.302;-122.946;2023-06-24T12:22:55;101376.69;;;12.54;83.29
51468;BME280;37545;45.302;-122.946;2023-06-24T12:25:25;101368.75;;;12.49;82.91
51468;BME280;37545;45.302;-122.946;2023-06-24T12:27:54;101381.66;;;12.48;83.47
51468;BME280;37545;45.302;-122.946;2023-06-24T12:30:23;101379.91;;;12.47;83.57
51468;BME280;37545;45.302;-122.946;2023-06-24T12:32:51;101379.84;;;12.45;83.96
51468;BME280;37545;45.302;-122.946;2023-06-24T12:35:20;101383.31;;;12.44;83.40
51468;BME280;37545;45.302;-122.946;2023-06-24T12:37:48;101388.44;;;12.43;83.61